sensor_id;sensor_type;location;lat;lon;timestamp;pressure;altitude;pressure_sealevel;temperature;humidity
25722;BME280;13578;53.450;15.496;2022-12-24T00:00:23;98592.69;;;2.12;100.00
25722;BME280;13578;53.450;15.496;2022-12-24T00:03:27;98595.47;;;2.10;100.00
25722;BME280;13578;53.450;15.496;2022-12-24T00:06:29;98598.56;;;2.05;100.00
25722;BME280;13578;53.450;15.496;2022-12-24T00:09:29;98592.50;;;2.02;100.00
25722;BME280;13578;53.450;15.496;2022-12-24T00:12:30;98587.72;;;2.05;100.00
25722;BME280;13578;53.450;15.496;2022-12-24T00:15:31;98598.00;;;2.00;100.00
25722;BME280;13578;53.450;15.496;2022-12-24T00:18:32;98606.88;;;2.02;100.00
25722;BME280;13578;53.450;15.496;2022-12-24T00:21:32;98600.72;;;2.00;100.00
25722;BME280;13578;53.450;15.496;2022-12-24T00:24:33;98598.78;;;2.02;100.00
25722;BME280;13578;53.450;15.496;2022-12-24T00:27:34;98608.75;;;2.02;100.00
25722;BME280;13578;53.450;15.496;2022-12-24T00:30:37;98607.44;;;1.95;100.00
25722;BME280;13578;53.450;15.496;2022-12-24T00:33:38;98608.78;;;1.89;100.00
25722;BME280;13578;53.450;15.496;2022-12-24T00:36:39;98608.00;;;1.87;100.00
25722;BME280;13578;53.450;15.496;2022-12-24T00:39:40;98615.56;;;1.95;100.00
25722;BME280;13578;53.450;15.496;2022-12-24T00:42:40;98614.91;;;1.91;100.00
25722;BME280;13578;53.450;15.496;2022-12-24T00:45:41;98620.97;;;1.95;100.00
25722;BME280;13578;53.450;15.496;2022-12-24T00:48:42;98611.16;;;1.94;100.00
25722;BME280;13578;53.450;15.496;2022-12-24T00:51:42;98623.91;;;1.92;100.00
25722;BME280;13578;53.450;15.496;2022-12-24T00:54:43;98626.19;;;1.85;100.00
25722;BME280;13578;53.450;15.496;2022-12-24T00:57:43;98625.88;;;1.77;100.00
25722;BME280;13578;53.450;15.496;2022-12-24T01:00:44;98633.25;;;1.74;100.00
25722;BME280;13578;53.450;15.496;2022-12-24T01:03:45;98633.25;;;1.74;100.00
25722;BME280;13578;53.450;15.496;2022-12-24T01:06:46;98642.22;;;1.75;100.00
25722;BME280;13578;53.450;15.496;2022-12-24T01:09:46;98639.53;;;1.75;100.00
25722;BME280;13578;53.450;15.496;2022-12-24T01:12:47;98641.91;;;1.80;100.00
25722;BME280;13578;53.450;15.496;2022-12-24T01:15:48;98645.19;;;1.72;100.00
25722;BME280;13578;53.450;15.496;2022-12-24T01:18:48;98639.44;;;1.64;100.00
25722;BME280;13578;53.450;15.496;2022-12-24T01:21:49;98637.84;;;1.61;100.00
25722;BME280;13578;53.450;15.496;2022-12-24T01:24:50;98636.84;;;1.62;100.00
25722;BME280;13578;53.450;15.496;2022-12-24T01:27:50;98636.09;;;1.60;100.00
25722;BME280;13578;53.450;15.496;2022-12-24T01:30:51;98633.72;;;1.55;100.00
25722;BME280;13578;53.450;15.496;2022-12-24T01:33:52;98636.09;;;1.60;100.00
25722;BME280;13578;53.450;15.496;2022-12-24T01:36:52;98649.19;;;1.53;100.00
25722;BME280;13578;53.450;15.496;2022-12-24T01:39:53;98652.22;;;1.49;100.00
25722;BME280;13578;53.450;15.496;2022-12-24T01:43:19;98654.38;;;1.43;100.00
25722;BME280;13578;53.450;15.496;2022-12-24T01:46:25;98657.63;;;1.49;100.00
25722;BME280;13578;53.450;15.496;2022-12-24T01:49:28;98662.28;;;1.47;100.00
25722;BME280;13578;53.450;15.496;2022-12-24T01:52:33;98663.16;;;1.47;100.00
25722;BME280;13578;53.450;15.496;2022-12-24T01:55:34;98663.25;;;1.46;100.00
25722;BME280;13578;53.450;15.496;2022-12-24T01:58:36;98670.06;;;1.38;100.00
25722;BME280;13578;53.450;15.496;2022-12-24T02:01:40;98664.34;;;1.43;100.00
25722;BME280;13578;53.450;15.496;2022-12-24T02:04:50;98673.31;;;1.43;100.00
25722;BME280;13578;53.450;15.496;2022-12-24T02:07:52;98662.81;;;1.52;100.00
25722;BME280;13578;53.450;15.496;2022-12-24T02:10:53;98668.56;;;1.47;100.00
25722;BME280;13578;53.450;15.496;2022-12-24T02:13:59;98677.75;;;1.45;100.00
25722;BME280;13578;53.450;15.496;2022-12-24T02:33:13;98688.03;;;1.39;100.00
25722;BME280;13578;53.450;15.496;2022-12-24T02:40:02;98691.91;;;1.35;100.00
25722;BME280;13578;53.450;15.496;2022-12-24T02:43:12;98704.25;;;1.39;100.00
25722;BME280;13578;53.450;15.496;2022-12-24T02:46:20;98698.09;;;1.37;100.00
25722;BME280;13578;53.450;15.496;2022-12-24T02:49:23;98699.16;;;1.35;100.00
25722;BME280;13578;53.450;15.496;2022-12-24T02:52:36;98701.94;;;1.33;100.00
25722;BME280;13578;53.450;15.496;2022-12-24T02:59:08;98702.16;;;1.17;100.00
25722;BME280;13578;53.450;15.496;2022-12-24T03:02:38;98709.88;;;0.96;100.00
25722;BME280;13578;53.450;15.496;2022-12-24T03:06:56;98703.31;;;1.00;100.00
25722;BME280;13578;53.450;15.496;2022-12-24T03:09:26;98707.03;;;1.12;100.00
25722;BME280;13578;53.450;15.496;2022-12-24T03:12:38;98708.31;;;1.06;100.00
25722;BME280;13578;53.450;15.496;2022-12-24T03:15:41;98719.75;;;1.10;100.00
25722;BME280;13578;53.450;15.496;2022-12-24T03:18:45;98723.19;;;0.99;100.00
25722;BME280;13578;53.450;15.496;2022-12-24T03:21:47;98719.84;;;0.95;100.00
25722;BME280;13578;53.450;15.496;2022-12-24T03:24:49;98720.81;;;0.94;100.00
25722;BME280;13578;53.450;15.496;2022-12-24T03:27:50;98712.47;;;0.85;100.00
25722;BME280;13578;53.450;15.496;2022-12-24T03:30:51;98707.16;;;0.83;100.00
25722;BME280;13578;53.450;15.496;2022-12-24T03:33:52;98712.38;;;0.99;100.00
25722;BME280;13578;53.450;15.496;2022-12-24T03:36:53;98719.72;;;0.97;100.00
25722;BME280;13578;53.450;15.496;2022-12-24T03:39:54;98723.63;;;0.93;100.00
25722;BME280;13578;53.450;15.496;2022-12-24T03:42:54;98727.47;;;0.89;100.00
25722;BME280;13578;53.450;15.496;2022-12-24T03:45:55;98735.19;;;0.95;100.00
25722;BME280;13578;53.450;15.496;2022-12-24T03:48:57;98736.72;;;0.99;100.00
25722;BME280;13578;53.450;15.496;2022-12-24T03:51:57;98744.25;;;0.94;100.00
25722;BME280;13578;53.450;15.496;2022-12-24T03:54:58;98741.97;;;0.88;100.00
25722;BME280;13578;53.450;15.496;2022-12-24T03:57:58;98747.16;;;0.91;100.00
25722;BME280;13578;53.450;15.496;2022-12-24T04:00:59;98740.53;;;0.82;100.00
25722;BME280;13578;53.450;15.496;2022-12-24T04:04:00;98746.19;;;0.92;100.00
25722;BME280;13578;53.450;15.496;2022-12-24T04:07:01;98752.16;;;0.97;100.00
25722;BME280;13578;53.450;15.496;2022-12-24T04:10:02;98744.94;;;0.98;100.00
25722;BME280;13578;53.450;15.496;2022-12-24T04:13:02;98751.72;;;0.90;100.00
25722;BME280;13578;53.450;15.496;2022-12-24T04:16:06;98751.25;;;0.84;100.00
25722;BME280;13578;53.450;15.496;2022-12-24T04:19:07;98756.22;;;0.90;100.00
25722;BME280;13578;53.450;15.496;2022-12-24T04:22:07;98753.84;;;0.85;100.00
25722;BME280;13578;53.450;15.496;2022-12-24T04:25:09;98757.78;;;0.94;100.00
25722;BME280;13578;53.450;15.496;2022-12-24T04:28:09;98753.63;;;0.88;100.00
25722;BME280;13578;53.450;15.496;2022-12-24T04:31:13;98759.91;;;0.89;100.00
25722;BME280;13578;53.450;15.496;2022-12-24T04:34:15;98752.13;;;0.84;100.00
25722;BME280;13578;53.450;15.496;2022-12-24T04:37:15;98744.09;;;0.83;100.00
25722;BME280;13578;53.450;15.496;2022-12-24T04:40:16;98766.06;;;0.91;100.00
25722;BME280;13578;53.450;15.496;2022-12-24T04:43:17;98759.16;;;0.87;100.00
25722;BME280;13578;53.450;15.496;2022-12-24T04:46:25;98762.28;;;0.93;100.00
25722;BME280;13578;53.450;15.496;2022-12-24T04:49:26;98770.97;;;0.99;100.00
25722;BME280;13578;53.450;15.496;2022-12-24T04:52:27;98771.28;;;0.94;100.00
25722;BME280;13578;53.450;15.496;2022-12-24T04:55:27;98758.78;;;0.78;100.00
25722;BME280;13578;53.450;15.496;2022-12-24T04:58:28;98764.97;;;0.81;100.00
25722;BME280;13578;53.450;15.496;2022-12-24T05:01:31;98760.31;;;0.83;100.00
25722;BME280;13578;53.450;15.496;2022-12-24T05:04:32;98774.28;;;0.89;100.00
25722;BME280;13578;53.450;15.496;2022-12-24T05:07:33;98770.94;;;0.86;100.00
25722;BME280;13578;53.450;15.496;2022-12-24T05:10:33;98784.72;;;0.81;100.00
25722;BME280;13578;53.450;15.496;2022-12-24T05:13:35;98772.41;;;0.77;100.00
25722;BME280;13578;53.450;15.496;2022-12-24T05:16:35;98777.88;;;0.75;100.00
25722;BME280;13578;53.450;15.496;2022-12-24T05:19:37;98778.53;;;0.66;100.00
25722;BME280;13578;53.450;15.496;2022-12-24T05:22:38;98774.47;;;0.59;100.00
25722;BME280;13578;53.450;15.496;2022-12-24T05:25:57;98788.03;;;0.72;100.00
25722;BME280;13578;53.450;15.496;2022-12-24T05:29:16;98790.28;;;0.65;100.00
25722;BME280;13578;53.450;15.496;2022-12-24T05:32:17;98795.75;;;0.63;100.00
25722;BME280;13578;53.450;15.496;2022-12-24T05:35:17;98788.31;;;0.67;100.00
25722;BME280;13578;53.450;15.496;2022-12-24T05:38:18;98804.22;;;0.72;100.00
25722;BME280;13578;53.450;15.496;2022-12-24T05:41:19;98798.75;;;0.59;100.00
25722;BME280;13578;53.450;15.496;2022-12-24T05:44:20;98804.25;;;0.57;100.00
25722;BME280;13578;53.450;15.496;2022-12-24T05:47:20;98811.50;;;0.57;100.00
25722;BME280;13578;53.450;15.496;2022-12-24T05:50:21;98814.88;;;0.60;100.00
25722;BME280;13578;53.450;15.496;2022-12-24T05:53:22;98818.66;;;0.58;100.00
25722;BME280;13578;53.450;15.496;2022-12-24T05:56:24;98817.00;;;0.55;100.00
25722;BME280;13578;53.450;15.496;2022-12-24T05:59:24;98821.81;;;0.65;100.00
25722;BME280;13578;53.450;15.496;2022-12-24T06:02:25;98819.22;;;0.63;100.00
25722;BME280;13578;53.450;15.496;2022-12-24T06:05:26;98832.22;;;0.56;100.00
25722;BME280;13578;53.450;15.496;2022-12-24T06:08:27;98833.69;;;0.47;100.00
25722;BME280;13578;53.450;15.496;2022-12-24T06:11:29;98831.97;;;0.46;100.00
25722;BME280;13578;53.450;15.496;2022-12-24T06:14:29;98833.59;;;0.49;100.00
25722;BME280;13578;53.450;15.496;2022-12-24T06:17:30;98832.91;;;0.45;100.00
25722;BME280;13578;53.450;15.496;2022-12-24T06:20:31;98842.88;;;0.45;100.00
25722;BME280;13578;53.450;15.496;2022-12-24T06:23:34;98858.66;;;0.51;100.00
25722;BME280;13578;53.450;15.496;2022-12-24T06:26:35;98858.84;;;0.48;100.00
25722;BME280;13578;53.450;15.496;2022-12-24T06:29:36;98857.22;;;0.45;100.00
25722;BME280;13578;53.450;15.496;2022-12-24T06:32:36;98861.75;;;0.45;100.00
25722;BME280;13578;53.450;15.496;2022-12-24T06:35:37;98867.25;;;0.43;100.00
25722;BME280;13578;53.450;15.496;2022-12-24T06:38:38;98877.28;;;0.56;100.00
25722;BME280;13578;53.450;15.496;2022-12-24T06:41:38;98877.06;;;0.59;100.00
25722;BME280;13578;53.450;15.496;2022-12-24T06:44:39;98883.53;;;0.56;100.00
25722;BME280;13578;53.450;15.496;2022-12-24T06:47:39;98890.22;;;0.51;100.00
25722;BME280;13578;53.450;15.496;2022-12-24T06:50:40;98896.84;;;0.45;100.00
25722;BME280;13578;53.450;15.496;2022-12-24T06:53:41;98903.03;;;0.47;100.00
25722;BME280;13578;53.450;15.496;2022-12-24T06:56:42;98909.41;;;0.46;100.00
25722;BME280;13578;53.450;15.496;2022-12-24T06:59:42;98922.69;;;0.35;100.00
25722;BME280;13578;53.450;15.496;2022-12-24T07:02:44;98918.34;;;0.32;100.00
25722;BME280;13578;53.450;15.496;2022-12-24T07:05:44;98923.56;;;0.35;100.00
25722;BME280;13578;53.450;15.496;2022-12-24T07:08:45;98931.66;;;0.35;100.00
25722;BME280;13578;53.450;15.496;2022-12-24T07:11:46;98934.09;;;0.40;100.00
25722;BME280;13578;53.450;15.496;2022-12-24T07:14:46;98943.22;;;0.37;100.00
25722;BME280;13578;53.450;15.496;2022-12-24T07:17:47;98940.03;;;0.30;100.00
25722;BME280;13578;53.450;15.496;2022-12-24T07:20:48;98943.53;;;0.33;100.00
25722;BME280;13578;53.450;15.496;2022-12-24T07:23:48;98947.25;;;0.30;100.00
25722;BME280;13578;53.450;15.496;2022-12-24T07:26:49;98945.22;;;0.34;100.00
25722;BME280;13578;53.450;15.496;2022-12-24T07:29:50;98949.94;;;0.30;100.00
25722;BME280;13578;53.450;15.496;2022-12-24T07:32:50;98960.41;;;0.36;100.00
25722;BME280;13578;53.450;15.496;2022-12-24T07:36:18;98962.09;;;0.37;100.00
25722;BME280;13578;53.450;15.496;2022-12-24T07:39:19;98963.53;;;0.28;100.00
25722;BME280;13578;53.450;15.496;2022-12-24T07:42:20;98964.44;;;0.29;100.00
25722;BME280;13578;53.450;15.496;2022-12-24T07:45:21;98967.81;;;0.33;100.00
25722;BME280;13578;53.450;15.496;2022-12-24T07:48:21;98967.59;;;0.36;100.00
25722;BME280;13578;53.450;15.496;2022-12-24T07:51:22;98966.38;;;0.41;100.00
25722;BME280;13578;53.450;15.496;2022-12-24T07:54:23;98966.09;;;0.46;100.00
25722;BME280;13578;53.450;15.496;2022-12-24T07:57:24;98972.25;;;0.48;100.00
25722;BME280;13578;53.450;15.496;2022-12-24T08:00:25;98983.66;;;0.53;100.00
25722;BME280;13578;53.450;15.496;2022-12-24T08:03:25;98994.84;;;0.61;100.00
25722;BME280;13578;53.450;15.496;2022-12-24T08:06:26;98998.22;;;0.51;100.00
25722;BME280;13578;53.450;15.496;2022-12-24T08:09:27;99001.28;;;0.59;100.00
25722;BME280;13578;53.450;15.496;2022-12-24T08:12:30;99006.34;;;0.65;100.00
25722;BME280;13578;53.450;15.496;2022-12-24T08:15:31;99008.44;;;0.60;100.00
25722;BME280;13578;53.450;15.496;2022-12-24T08:18:32;99005.94;;;0.57;100.00
25722;BME280;13578;53.450;15.496;2022-12-24T08:21:33;98999.75;;;0.55;100.00
25722;BME280;13578;53.450;15.496;2022-12-24T08:24:33;99011.06;;;0.61;100.00
25722;BME280;13578;53.450;15.496;2022-12-24T08:27:34;99011.91;;;0.62;100.00
25722;BME280;13578;53.450;15.496;2022-12-24T08:30:35;99012.88;;;0.61;100.00
25722;BME280;13578;53.450;15.496;2022-12-24T08:33:35;99019.91;;;0.63;100.00
25722;BME280;13578;53.450;15.496;2022-12-24T08:36:36;99019.84;;;0.65;100.00
25722;BME280;13578;53.450;15.496;2022-12-24T08:39:36;99021.94;;;0.74;100.00
25722;BME280;13578;53.450;15.496;2022-12-24T08:42:37;99035.75;;;0.70;100.00
25722;BME280;13578;53.450;15.496;2022-12-24T08:45:38;99038.34;;;0.71;100.00
25722;BME280;13578;53.450;15.496;2022-12-24T08:48:39;99043.56;;;0.74;100.00
25722;BME280;13578;53.450;15.496;2022-12-24T08:51:39;99054.19;;;0.77;100.00
25722;BME280;13578;53.450;15.496;2022-12-24T08:54:40;99058.25;;;0.85;100.00
25722;BME280;13578;53.450;15.496;2022-12-24T08:57:41;99068.78;;;0.89;100.00
25722;BME280;13578;53.450;15.496;2022-12-24T09:00:41;99076.75;;;0.91;100.00
25722;BME280;13578;53.450;15.496;2022-12-24T09:03:42;99067.41;;;0.82;100.00
25722;BME280;13578;53.450;15.496;2022-12-24T09:06:43;99074.63;;;0.96;100.00
25722;BME280;13578;53.450;15.496;2022-12-24T09:09:43;99083.16;;;1.04;100.00
25722;BME280;13578;53.450;15.496;2022-12-24T09:12:44;99084.72;;;1.08;100.00
25722;BME280;13578;53.450;15.496;2022-12-24T09:15:54;99096.47;;;1.07;100.00
25722;BME280;13578;53.450;15.496;2022-12-24T09:18:56;99102.06;;;1.19;100.00
25722;BME280;13578;53.450;15.496;2022-12-24T09:21:56;99096.88;;;1.16;100.00
25722;BME280;13578;53.450;15.496;2022-12-24T09:24:57;99089.63;;;1.16;100.00
25722;BME280;13578;53.450;15.496;2022-12-24T09:27:58;99096.94;;;1.29;100.00
25722;BME280;13578;53.450;15.496;2022-12-24T09:31:01;99100.66;;;1.27;100.00
25722;BME280;13578;53.450;15.496;2022-12-24T09:34:02;99098.13;;;1.24;100.00
25722;BME280;13578;53.450;15.496;2022-12-24T09:37:02;99099.88;;;1.25;100.00
25722;BME280;13578;53.450;15.496;2022-12-24T09:40:03;99102.56;;;1.25;100.00
25722;BME280;13578;53.450;15.496;2022-12-24T09:43:12;99111.84;;;1.36;100.00
25722;BME280;13578;53.450;15.496;2022-12-24T09:46:27;99112.22;;;1.44;100.00
25722;BME280;13578;53.450;15.496;2022-12-24T09:49:37;99120.44;;;1.42;100.00
25722;BME280;13578;53.450;15.496;2022-12-24T09:52:41;99118.97;;;1.51;100.00
25722;BME280;13578;53.450;15.496;2022-12-24T09:55:46;99129.88;;;1.50;100.00
25722;BME280;13578;53.450;15.496;2022-12-24T09:58:51;99123.50;;;1.51;100.00
25722;BME280;13578;53.450;15.496;2022-12-24T10:01:53;99129.59;;;1.69;100.00
25722;BME280;13578;53.450;15.496;2022-12-24T10:04:54;99129.19;;;1.61;100.00
25722;BME280;13578;53.450;15.496;2022-12-24T10:08:24;99135.66;;;1.72;100.00
25722;BME280;13578;53.450;15.496;2022-12-24T10:11:30;99140.13;;;1.73;100.00
25722;BME280;13578;53.450;15.496;2022-12-24T10:21:50;99141.25;;;1.98;100.00
25722;BME280;13578;53.450;15.496;2022-12-24T10:28:45;99165.41;;;1.87;100.00
25722;BME280;13578;53.450;15.496;2022-12-24T10:35:36;99173.50;;;2.01;100.00
25722;BME280;13578;53.450;15.496;2022-12-24T10:38:39;99175.53;;;1.98;100.00
25722;BME280;13578;53.450;15.496;2022-12-24T10:41:40;99184.91;;;2.06;100.00
25722;BME280;13578;53.450;15.496;2022-12-24T10:44:41;99176.59;;;2.10;100.00
25722;BME280;13578;53.450;15.496;2022-12-24T10:47:47;99179.59;;;2.05;100.00
25722;BME280;13578;53.450;15.496;2022-12-24T10:50:59;99169.31;;;2.10;100.00
25722;BME280;13578;53.450;15.496;2022-12-24T10:54:07;99185.56;;;2.10;100.00
25722;BME280;13578;53.450;15.496;2022-12-24T10:57:25;99187.69;;;2.19;100.00
25722;BME280;13578;53.450;15.496;2022-12-24T11:00:26;99189.44;;;2.20;100.00
25722;BME280;13578;53.450;15.496;2022-12-24T11:03:32;99201.72;;;2.26;100.00
25722;BME280;13578;53.450;15.496;2022-12-24T11:07:00;99207.84;;;2.43;100.00
25722;BME280;13578;53.450;15.496;2022-12-24T11:10:04;99199.31;;;2.49;100.00
25722;BME280;13578;53.450;15.496;2022-12-24T11:13:30;99202.03;;;2.49;100.00
25722;BME280;13578;53.450;15.496;2022-12-24T11:16:33;99212.53;;;2.53;100.00
25722;BME280;13578;53.450;15.496;2022-12-24T11:19:38;99210.50;;;2.57;100.00
25722;BME280;13578;53.450;15.496;2022-12-24T11:22:41;99210.25;;;2.47;100.00
25722;BME280;13578;53.450;15.496;2022-12-24T11:25:49;99213.25;;;2.43;100.00
25722;BME280;13578;53.450;15.496;2022-12-24T11:32:19;99203.03;;;2.33;100.00
25722;BME280;13578;53.450;15.496;2022-12-24T11:35:22;99212.13;;;2.32;100.00
25722;BME280;13578;53.450;15.496;2022-12-24T11:38:25;99222.66;;;2.37;100.00
25722;BME280;13578;53.450;15.496;2022-12-24T11:41:26;99215.22;;;2.41;100.00
25722;BME280;13578;53.450;15.496;2022-12-24T11:44:46;99208.34;;;2.35;100.00
25722;BME280;13578;53.450;15.496;2022-12-24T11:47:48;99201.31;;;2.32;100.00
25722;BME280;13578;53.450;15.496;2022-12-24T11:50:58;99208.25;;;2.36;100.00
25722;BME280;13578;53.450;15.496;2022-12-24T11:54:08;99209.16;;;2.50;100.00
25722;BME280;13578;53.450;15.496;2022-12-24T11:57:15;99212.75;;;2.50;100.00
25722;BME280;13578;53.450;15.496;2022-12-24T12:00:19;99223.59;;;2.50;100.00
25722;BME280;13578;53.450;15.496;2022-12-24T12:03:31;99223.47;;;2.52;100.00
25722;BME280;13578;53.450;15.496;2022-12-24T12:09:54;99228.91;;;2.52;100.00
25722;BME280;13578;53.450;15.496;2022-12-24T12:16:46;99243.22;;;2.54;100.00
25722;BME280;13578;53.450;15.496;2022-12-24T12:20:03;99242.03;;;2.58;100.00
25722;BME280;13578;53.450;15.496;2022-12-24T12:26:23;99241.75;;;2.63;100.00
25722;BME280;13578;53.450;15.496;2022-12-24T12:29:46;99246.72;;;2.56;100.00
25722;BME280;13578;53.450;15.496;2022-12-24T12:33:18;99249.19;;;2.59;100.00
25722;BME280;13578;53.450;15.496;2022-12-24T12:36:25;99255.22;;;2.64;100.00
25722;BME280;13578;53.450;15.496;2022-12-24T12:39:30;99253.66;;;2.60;100.00
25722;BME280;13578;53.450;15.496;2022-12-24T12:42:33;99255.59;;;2.58;100.00
25722;BME280;13578;53.450;15.496;2022-12-24T12:45:52;99253.09;;;2.55;100.00
25722;BME280;13578;53.450;15.496;2022-12-24T12:55:38;99262.44;;;2.64;100.00
25722;BME280;13578;53.450;15.496;2022-12-24T12:58:51;99265.34;;;2.61;100.00
25722;BME280;13578;53.450;15.496;2022-12-24T13:19:24;99273.09;;;2.67;100.00
25722;BME280;13578;53.450;15.496;2022-12-24T13:22:29;99277.44;;;2.69;100.00
25722;BME280;13578;53.450;15.496;2022-12-24T13:28:33;99266.78;;;2.66;100.00
25722;BME280;13578;53.450;15.496;2022-12-24T13:31:34;99275.69;;;2.68;100.00
25722;BME280;13578;53.450;15.496;2022-12-24T13:34:35;99281.13;;;2.68;100.00
25722;BME280;13578;53.450;15.496;2022-12-24T13:37:36;99282.56;;;2.74;100.00
25722;BME280;13578;53.450;15.496;2022-12-24T13:40:37;99282.44;;;2.76;100.00
25722;BME280;13578;53.450;15.496;2022-12-24T13:47:16;99282.25;;;2.79;100.00
25722;BME280;13578;53.450;15.496;2022-12-24T13:50:23;99291.06;;;2.82;100.00
25722;BME280;13578;53.450;15.496;2022-12-24T13:56:35;99290.28;;;2.80;100.00
25722;BME280;13578;53.450;15.496;2022-12-24T13:59:38;99297.53;;;2.80;100.00
25722;BME280;13578;53.450;15.496;2022-12-24T14:02:52;99300.44;;;2.77;100.00
25722;BME280;13578;53.450;15.496;2022-12-24T14:06:31;99311.88;;;2.67;100.00
25722;BME280;13578;53.450;15.496;2022-12-24T14:09:33;99318.19;;;2.68;100.00
25722;BME280;13578;53.450;15.496;2022-12-24T14:12:53;99315.56;;;2.66;100.00
25722;BME280;13578;53.450;15.496;2022-12-24T14:19:21;99317.31;;;2.67;100.00
25722;BME280;13578;53.450;15.496;2022-12-24T14:22:27;99323.13;;;2.61;100.00
25722;BME280;13578;53.450;15.496;2022-12-24T14:25:28;99326.25;;;2.55;100.00
25722;BME280;13578;53.450;15.496;2022-12-24T14:28:34;99334.56;;;2.52;100.00
25722;BME280;13578;53.450;15.496;2022-12-24T14:31:36;99333.59;;;2.53;100.00
25722;BME280;13578;53.450;15.496;2022-12-24T14:34:36;99327.78;;;2.45;100.00
25722;BME280;13578;53.450;15.496;2022-12-24T14:37:38;99330.78;;;2.54;100.00
25722;BME280;13578;53.450;15.496;2022-12-24T14:44:25;99338.44;;;2.48;100.00
25722;BME280;13578;53.450;15.496;2022-12-24T14:47:29;99346.97;;;2.42;100.00
25722;BME280;13578;53.450;15.496;2022-12-24T14:54:16;99350.63;;;2.41;100.00
25722;BME280;13578;53.450;15.496;2022-12-24T14:57:24;99356.81;;;2.43;100.00
25722;BME280;13578;53.450;15.496;2022-12-24T15:00:25;99358.84;;;2.39;100.00
25722;BME280;13578;53.450;15.496;2022-12-24T15:03:30;99359.91;;;2.36;100.00
25722;BME280;13578;53.450;15.496;2022-12-24T15:06:34;99366.09;;;2.38;100.00
25722;BME280;13578;53.450;15.496;2022-12-24T15:09:35;99356.22;;;2.37;100.00
25722;BME280;13578;53.450;15.496;2022-12-24T15:12:40;99365.53;;;2.33;100.00
25722;BME280;13578;53.450;15.496;2022-12-24T15:15:41;99370.28;;;2.30;100.00
25722;BME280;13578;53.450;15.496;2022-12-24T15:18:48;99369.09;;;2.34;100.00
25722;BME280;13578;53.450;15.496;2022-12-24T15:21:51;99369.19;;;2.32;100.00
25722;BME280;13578;53.450;15.496;2022-12-24T15:24:53;99380.22;;;2.29;100.00
25722;BME280;13578;53.450;15.496;2022-12-24T15:27:53;99382.91;;;2.29;100.00
25722;BME280;13578;53.450;15.496;2022-12-24T15:31:09;99386.91;;;2.24;100.00
25722;BME280;13578;53.450;15.496;2022-12-24T15:37:27;99394.13;;;2.23;100.00
25722;BME280;13578;53.450;15.496;2022-12-24T15:40:29;99399.56;;;2.23;100.00
25722;BME280;13578;53.450;15.496;2022-12-24T15:43:32;99402.09;;;2.26;100.00
25722;BME280;13578;53.450;15.496;2022-12-24T15:46:38;99401.19;;;2.26;100.00
25722;BME280;13578;53.450;15.496;2022-12-24T15:49:38;99390.28;;;2.27;100.00
25722;BME280;13578;53.450;15.496;2022-12-24T15:52:40;99388.16;;;2.18;100.00
25722;BME280;13578;53.450;15.496;2022-12-24T15:55:43;99404.94;;;2.09;100.00
25722;BME280;13578;53.450;15.496;2022-12-24T15:58:44;99398.41;;;2.13;100.00
25722;BME280;13578;53.450;15.496;2022-12-24T16:01:46;99389.25;;;1.99;100.00
25722;BME280;13578;53.450;15.496;2022-12-24T16:04:47;99388.22;;;2.02;100.00
25722;BME280;13578;53.450;15.496;2022-12-24T16:11:19;99401.84;;;2.00;100.00
25722;BME280;13578;53.450;15.496;2022-12-24T16:14:20;99406.88;;;2.06;100.00
25722;BME280;13578;53.450;15.496;2022-12-24T16:17:26;99403.72;;;2.14;100.00
25722;BME280;13578;53.450;15.496;2022-12-24T16:20:28;99413.19;;;2.07;100.00
25722;BME280;13578;53.450;15.496;2022-12-24T16:23:54;99415.09;;;2.05;100.00
25722;BME280;13578;53.450;15.496;2022-12-24T16:26:56;99414.25;;;2.04;100.00
25722;BME280;13578;53.450;15.496;2022-12-24T16:29:57;99414.03;;;2.08;100.00
25722;BME280;13578;53.450;15.496;2022-12-24T16:32:58;99417.34;;;2.13;100.00
25722;BME280;13578;53.450;15.496;2022-12-24T16:35:58;99414.69;;;1.97;100.00
25722;BME280;13578;53.450;15.496;2022-12-24T16:38:59;99401.25;;;1.95;100.00
25722;BME280;13578;53.450;15.496;2022-12-24T16:42:18;99403.00;;;1.96;100.00
25722;BME280;13578;53.450;15.496;2022-12-24T16:45:38;99393.53;;;2.03;100.00
25722;BME280;13578;53.450;15.496;2022-12-24T16:48:39;99401.47;;;2.06;100.00
25722;BME280;13578;53.450;15.496;2022-12-24T16:51:39;99414.03;;;2.08;100.00
25722;BME280;13578;53.450;15.496;2022-12-24T16:54:40;99415.31;;;2.02;100.00
25722;BME280;13578;53.450;15.496;2022-12-24T16:57:41;99411.41;;;1.92;100.00
25722;BME280;13578;53.450;15.496;2022-12-24T17:00:43;99412.19;;;1.94;100.00
25722;BME280;13578;53.450;15.496;2022-12-24T17:03:44;99413.72;;;1.98;100.00
25722;BME280;13578;53.450;15.496;2022-12-24T17:06:44;99406.41;;;2.00;100.00
25722;BME280;13578;53.450;15.496;2022-12-24T17:09:45;99412.13;;;2.10;100.00
25722;BME280;13578;53.450;15.496;2022-12-24T17:12:46;99424.00;;;2.07;100.00
25722;BME280;13578;53.450;15.496;2022-12-24T17:15:46;99433.88;;;2.08;100.00
25722;BME280;13578;53.450;15.496;2022-12-24T17:18:47;99426.81;;;2.05;100.00
25722;BME280;13578;53.450;15.496;2022-12-24T17:21:48;99424.28;;;2.02;100.00
25722;BME280;13578;53.450;15.496;2022-12-24T17:24:49;99421.41;;;2.05;100.00
25722;BME280;13578;53.450;15.496;2022-12-24T17:27:50;99418.75;;;2.04;100.00
25722;BME280;13578;53.450;15.496;2022-12-24T17:30:50;99427.78;;;2.04;100.00
25722;BME280;13578;53.450;15.496;2022-12-24T17:33:51;99431.44;;;2.03;100.00
25722;BME280;13578;53.450;15.496;2022-12-24T17:36:52;99433.94;;;2.06;100.00
25722;BME280;13578;53.450;15.496;2022-12-24T17:39:53;99440.63;;;2.01;100.00
25722;BME280;13578;53.450;15.496;2022-12-24T17:42:53;99441.47;;;2.01;100.00